sensor_id;sensor_type;location;lat;lon;timestamp;P1;durP1;ratioP1;P2;durP2;ratioP2
79646;SDS011;69119;41.718;21.786;2023-07-29T00:02:08;7.47;;;5.30;;
79646;SDS011;69119;41.718;21.786;2023-07-29T00:04:34;8.70;;;5.53;;
79646;SDS011;69119;41.718;21.786;2023-07-29T00:07:00;8.20;;;5.00;;
79646;SDS011;69119;41.718;21.786;2023-07-29T00:09:26;9.13;;;5.72;;
79646;SDS011;69119;41.718;21.786;2023-07-29T00:11:52;9.35;;;5.95;;
79646;SDS011;69119;41.718;21.786;2023-07-29T00:14:18;8.57;;;5.18;;
79646;SDS011;69119;41.718;21.786;2023-07-29T00:16:44;9.10;;;5.10;;
79646;SDS011;69119;41.718;21.786;2023-07-29T00:19:10;9.32;;;6.07;;
79646;SDS011;69119;41.718;21.786;2023-07-29T00:21:36;10.65;;;5.70;;
79646;SDS011;69119;41.718;21.786;2023-07-29T00:24:03;9.80;;;5.35;;
79646;SDS011;69119;41.718;21.786;2023-07-29T00:26:29;8.88;;;5.55;;
79646;SDS011;69119;41.718;21.786;2023-07-29T00:28:58;16.80;;;5.80;;
79646;SDS011;69119;41.718;21.786;2023-07-29T00:31:24;11.30;;;5.97;;
79646;SDS011;69119;41.718;21.786;2023-07-29T00:33:50;9.80;;;5.80;;
79646;SDS011;69119;41.718;21.786;2023-07-29T00:36:17;8.43;;;4.03;;
79646;SDS011;69119;41.718;21.786;2023-07-29T00:38:44;10.93;;;6.05;;
79646;SDS011;69119;41.718;21.786;2023-07-29T00:41:10;10.43;;;5.72;;
79646;SDS011;69119;41.718;21.786;2023-07-29T00:43:38;10.45;;;5.68;;
79646;SDS011;69119;41.718;21.786;2023-07-29T00:46:04;8.65;;;6.30;;
79646;SDS011;69119;41.718;21.786;2023-07-29T00:48:31;7.95;;;5.28;;
79646;SDS011;69119;41.718;21.786;2023-07-29T00:50:57;11.77;;;5.60;;
79646;SDS011;69119;41.718;21.786;2023-07-29T00:53:23;9.35;;;6.05;;
79646;SDS011;69119;41.718;21.786;2023-07-29T00:55:49;11.60;;;6.50;;
79646;SDS011;69119;41.718;21.786;2023-07-29T00:58:15;13.15;;;7.28;;
79646;SDS011;69119;41.718;21.786;2023-07-29T01:00:41;10.65;;;5.55;;
79646;SDS011;69119;41.718;21.786;2023-07-29T01:03:07;10.07;;;5.55;;
79646;SDS011;69119;41.718;21.786;2023-07-29T01:05:36;10.63;;;6.18;;
79646;SDS011;69119;41.718;21.786;2023-07-29T01:15:32;10.77;;;6.25;;
79646;SDS011;69119;41.718;21.786;2023-07-29T01:18:02;11.40;;;6.38;;
79646;SDS011;69119;41.718;21.786;2023-07-29T01:20:30;9.32;;;5.80;;
79646;SDS011;69119;41.718;21.786;2023-07-29T01:22:58;9.18;;;6.53;;
79646;SDS011;69119;41.718;21.786;2023-07-29T01:25:24;8.55;;;5.38;;
79646;SDS011;69119;41.718;21.786;2023-07-29T01:27:51;9.93;;;5.72;;
79646;SDS011;69119;41.718;21.786;2023-07-29T01:30:17;8.55;;;6.07;;
79646;SDS011;69119;41.718;21.786;2023-07-29T01:32:52;12.18;;;5.80;;
79646;SDS011;69119;41.718;21.786;2023-07-29T01:35:21;9.07;;;5.43;;
79646;SDS011;69119;41.718;21.786;2023-07-29T01:37:51;9.32;;;6.00;;
79646;SDS011;69119;41.718;21.786;2023-07-29T01:40:17;8.90;;;5.20;;
79646;SDS011;69119;41.718;21.786;2023-07-29T01:42:44;9.95;;;6.03;;
79646;SDS011;69119;41.718;21.786;2023-07-29T01:45:11;10.30;;;6.15;;
79646;SDS011;69119;41.718;21.786;2023-07-29T01:47:37;9.85;;;6.07;;
79646;SDS011;69119;41.718;21.786;2023-07-29T01:50:05;9.25;;;6.03;;
79646;SDS011;69119;41.718;21.786;2023-07-29T01:52:32;11.40;;;6.57;;
79646;SDS011;69119;41.718;21.786;2023-07-29T01:54:58;11.15;;;5.80;;
79646;SDS011;69119;41.718;21.786;2023-07-29T01:57:24;8.77;;;6.03;;
79646;SDS011;69119;41.718;21.786;2023-07-29T01:59:50;11.05;;;5.90;;
79646;SDS011;69119;41.718;21.786;2023-07-29T02:04:42;8.25;;;4.70;;
79646;SDS011;69119;41.718;21.786;2023-07-29T02:07:10;11.73;;;6.05;;
79646;SDS011;69119;41.718;21.786;2023-07-29T02:09:36;9.00;;;6.25;;
79646;SDS011;69119;41.718;21.786;2023-07-29T02:12:02;9.32;;;6.07;;
79646;SDS011;69119;41.718;21.786;2023-07-29T02:14:28;10.70;;;4.22;;
79646;SDS011;69119;41.718;21.786;2023-07-29T02:16:54;7.50;;;4.82;;
79646;SDS011;69119;41.718;21.786;2023-07-29T02:19:20;7.72;;;5.32;;
79646;SDS011;69119;41.718;21.786;2023-07-29T02:21:46;7.90;;;5.20;;
79646;SDS011;69119;41.718;21.786;2023-07-29T02:24:12;8.73;;;4.78;;
79646;SDS011;69119;41.718;21.786;2023-07-29T02:26:38;9.93;;;4.90;;
79646;SDS011;69119;41.718;21.786;2023-07-29T02:29:04;8.35;;;6.05;;
79646;SDS011;69119;41.718;21.786;2023-07-29T02:31:30;10.60;;;5.93;;
79646;SDS011;69119;41.718;21.786;2023-07-29T02:33:57;8.45;;;4.60;;
79646;SDS011;69119;41.718;21.786;2023-07-29T02:36:23;7.20;;;5.72;;
79646;SDS011;69119;41.718;21.786;2023-07-29T02:38:49;11.48;;;4.75;;
79646;SDS011;69119;41.718;21.786;2023-07-29T02:41:15;7.95;;;3.67;;
79646;SDS011;69119;41.718;21.786;2023-07-29T02:43:42;7.68;;;4.45;;
79646;SDS011;69119;41.718;21.786;2023-07-29T02:46:08;8.23;;;5.18;;
79646;SDS011;69119;41.718;21.786;2023-07-29T02:48:34;8.20;;;5.32;;
79646;SDS011;69119;41.718;21.786;2023-07-29T02:51:00;6.82;;;4.30;;
79646;SDS011;69119;41.718;21.786;2023-07-29T02:53:26;7.75;;;4.68;;
79646;SDS011;69119;41.718;21.786;2023-07-29T02:55:53;7.85;;;4.60;;
79646;SDS011;69119;41.718;21.786;2023-07-29T02:58:19;7.07;;;4.55;;
79646;SDS011;69119;41.718;21.786;2023-07-29T03:00:45;7.68;;;4.53;;
79646;SDS011;69119;41.718;21.786;2023-07-29T03:03:13;8.07;;;4.78;;
79646;SDS011;69119;41.718;21.786;2023-07-29T03:05:39;8.13;;;4.45;;
79646;SDS011;69119;41.718;21.786;2023-07-29T03:08:05;7.10;;;4.55;;
79646;SDS011;69119;41.718;21.786;2023-07-29T03:10:31;6.70;;;4.30;;
79646;SDS011;69119;41.718;21.786;2023-07-29T03:12:57;7.85;;;4.43;;
79646;SDS011;69119;41.718;21.786;2023-07-29T03:15:23;9.02;;;5.00;;
79646;SDS011;69119;41.718;21.786;2023-07-29T03:17:50;7.47;;;5.35;;
79646;SDS011;69119;41.718;21.786;2023-07-29T03:20:16;11.95;;;6.03;;
79646;SDS011;69119;41.718;21.786;2023-07-29T03:22:45;10.80;;;5.47;;
79646;SDS011;69119;41.718;21.786;2023-07-29T03:27:37;10.20;;;5.75;;
79646;SDS011;69119;41.718;21.786;2023-07-29T03:30:05;9.15;;;5.45;;
79646;SDS011;69119;41.718;21.786;2023-07-29T03:34:57;9.98;;;5.60;;
79646;SDS011;69119;41.718;21.786;2023-07-29T03:37:23;9.95;;;5.53;;
79646;SDS011;69119;41.718;21.786;2023-07-29T03:39:50;11.60;;;6.53;;
79646;SDS011;69119;41.718;21.786;2023-07-29T03:42:17;8.70;;;5.82;;
79646;SDS011;69119;41.718;21.786;2023-07-29T03:44:43;9.13;;;5.80;;
79646;SDS011;69119;41.718;21.786;2023-07-29T03:47:09;9.65;;;6.20;;
79646;SDS011;69119;41.718;21.786;2023-07-29T03:49:35;9.70;;;6.10;;
79646;SDS011;69119;41.718;21.786;2023-07-29T03:52:01;10.77;;;5.80;;
79646;SDS011;69119;41.718;21.786;2023-07-29T03:54:27;9.52;;;5.93;;
79646;SDS011;69119;41.718;21.786;2023-07-29T03:56:53;11.30;;;7.10;;
79646;SDS011;69119;41.718;21.786;2023-07-29T03:59:19;8.80;;;4.85;;
79646;SDS011;69119;41.718;21.786;2023-07-29T04:01:47;8.95;;;5.90;;
79646;SDS011;69119;41.718;21.786;2023-07-29T04:04:13;10.02;;;6.65;;
79646;SDS011;69119;41.718;21.786;2023-07-29T04:06:39;11.13;;;5.15;;
79646;SDS011;69119;41.718;21.786;2023-07-29T04:09:05;11.18;;;6.35;;
79646;SDS011;69119;41.718;21.786;2023-07-29T04:11:33;11.98;;;7.00;;
79646;SDS011;69119;41.718;21.786;2023-07-29T04:13:59;8.73;;;5.82;;
79646;SDS011;69119;41.718;21.786;2023-07-29T04:16:25;11.88;;;6.13;;
79646;SDS011;69119;41.718;21.786;2023-07-29T04:18:51;10.25;;;6.85;;
79646;SDS011;69119;41.718;21.786;2023-07-29T04:21:17;9.52;;;7.28;;
79646;SDS011;69119;41.718;21.786;2023-07-29T04:23:43;8.60;;;5.60;;
79646;SDS011;69119;41.718;21.786;2023-07-29T04:26:09;9.60;;;6.10;;
79646;SDS011;69119;41.718;21.786;2023-07-29T04:28:35;9.93;;;6.65;;
79646;SDS011;69119;41.718;21.786;2023-07-29T04:31:01;10.88;;;7.30;;
79646;SDS011;69119;41.718;21.786;2023-07-29T04:33:29;11.10;;;6.60;;
79646;SDS011;69119;41.718;21.786;2023-07-29T04:35:56;11.43;;;6.70;;
79646;SDS011;69119;41.718;21.786;2023-07-29T04:38:24;8.93;;;6.70;;
79646;SDS011;69119;41.718;21.786;2023-07-29T04:40:50;11.38;;;6.38;;
79646;SDS011;69119;41.718;21.786;2023-07-29T04:43:16;11.10;;;6.05;;
79646;SDS011;69119;41.718;21.786;2023-07-29T04:45:43;8.93;;;5.60;;
79646;SDS011;69119;41.718;21.786;2023-07-29T04:48:09;9.95;;;6.53;;
79646;SDS011;69119;41.718;21.786;2023-07-29T04:50:35;9.00;;;5.03;;
79646;SDS011;69119;41.718;21.786;2023-07-29T04:53:01;9.15;;;5.57;;
79646;SDS011;69119;41.718;21.786;2023-07-29T04:55:27;7.32;;;5.65;;
79646;SDS011;69119;41.718;21.786;2023-07-29T04:57:53;8.50;;;5.70;;
79646;SDS011;69119;41.718;21.786;2023-07-29T05:00:19;7.80;;;3.85;;
79646;SDS011;69119;41.718;21.786;2023-07-29T05:02:45;8.10;;;4.00;;
79646;SDS011;69119;41.718;21.786;2023-07-29T05:05:11;8.85;;;4.28;;
79646;SDS011;69119;41.718;21.786;2023-07-29T05:07:37;8.77;;;5.47;;
79646;SDS011;69119;41.718;21.786;2023-07-29T05:10:03;8.43;;;4.47;;
79646;SDS011;69119;41.718;21.786;2023-07-29T05:12:29;8.15;;;4.68;;
79646;SDS011;69119;41.718;21.786;2023-07-29T05:14:57;7.57;;;4.40;;
79646;SDS011;69119;41.718;21.786;2023-07-29T05:17:23;8.65;;;5.15;;
79646;SDS011;69119;41.718;21.786;2023-07-29T05:19:49;7.60;;;4.53;;
79646;SDS011;69119;41.718;21.786;2023-07-29T05:22:15;9.48;;;5.40;;
79646;SDS011;69119;41.718;21.786;2023-07-29T05:24:41;9.35;;;4.68;;
79646;SDS011;69119;41.718;21.786;2023-07-29T05:27:07;10.13;;;4.95;;
79646;SDS011;69119;41.718;21.786;2023-07-29T05:29:33;8.18;;;4.65;;
79646;SDS011;69119;41.718;21.786;2023-07-29T05:32:00;8.70;;;5.28;;
79646;SDS011;69119;41.718;21.786;2023-07-29T05:34:26;8.55;;;4.90;;
79646;SDS011;69119;41.718;21.786;2023-07-29T05:39:18;8.82;;;4.82;;
79646;SDS011;69119;41.718;21.786;2023-07-29T05:41:44;8.13;;;5.13;;
79646;SDS011;69119;41.718;21.786;2023-07-29T05:44:10;8.52;;;5.53;;
79646;SDS011;69119;41.718;21.786;2023-07-29T05:46:37;9.70;;;4.50;;
79646;SDS011;69119;41.718;21.786;2023-07-29T05:49:03;7.78;;;4.93;;
79646;SDS011;69119;41.718;21.786;2023-07-29T05:51:29;7.30;;;4.80;;
79646;SDS011;69119;41.718;21.786;2023-07-29T05:53:55;7.93;;;4.28;;
79646;SDS011;69119;41.718;21.786;2023-07-29T05:56:21;7.68;;;5.03;;
79646;SDS011;69119;41.718;21.786;2023-07-29T05:58:47;11.45;;;4.90;;
79646;SDS011;69119;41.718;21.786;2023-07-29T06:01:13;7.35;;;3.40;;
79646;SDS011;69119;41.718;21.786;2023-07-29T06:06:05;7.88;;;4.53;;
79646;SDS011;69119;41.718;21.786;2023-07-29T06:08:31;11.77;;;5.00;;
79646;SDS011;69119;41.718;21.786;2023-07-29T06:10:59;9.43;;;4.93;;
79646;SDS011;69119;41.718;21.786;2023-07-29T06:13:25;7.28;;;4.28;;
79646;SDS011;69119;41.718;21.786;2023-07-29T06:15:52;8.38;;;4.35;;
79646;SDS011;69119;41.718;21.786;2023-07-29T06:20:44;6.82;;;2.83;;
79646;SDS011;69119;41.718;21.786;2023-07-29T06:23:10;9.82;;;4.82;;
79646;SDS011;69119;41.718;21.786;2023-07-29T06:25:37;8.27;;;6.03;;
79646;SDS011;69119;41.718;21.786;2023-07-29T06:28:03;11.75;;;7.50;;
79646;SDS011;69119;41.718;21.786;2023-07-29T06:30:29;9.60;;;6.40;;
79646;SDS011;69119;41.718;21.786;2023-07-29T06:32:56;8.20;;;4.50;;
79646;SDS011;69119;41.718;21.786;2023-07-29T06:35:22;8.02;;;5.35;;
79646;SDS011;69119;41.718;21.786;2023-07-29T06:37:48;7.80;;;5.07;;
79646;SDS011;69119;41.718;21.786;2023-07-29T06:40:15;9.15;;;5.35;;
79646;SDS011;69119;41.718;21.786;2023-07-29T06:42:41;8.82;;;5.50;;
79646;SDS011;69119;41.718;21.786;2023-07-29T06:45:07;9.93;;;4.82;;
79646;SDS011;69119;41.718;21.786;2023-07-29T06:47:33;8.98;;;5.53;;
79646;SDS011;69119;41.718;21.786;2023-07-29T06:49:59;10.00;;;6.13;;
79646;SDS011;69119;41.718;21.786;2023-07-29T06:52:25;8.52;;;5.30;;
79646;SDS011;69119;41.718;21.786;2023-07-29T06:54:52;8.30;;;4.93;;
79646;SDS011;69119;41.718;21.786;2023-07-29T06:57:18;8.60;;;5.80;;
79646;SDS011;69119;41.718;21.786;2023-07-29T06:59:44;8.70;;;4.80;;
79646;SDS011;69119;41.718;21.786;2023-07-29T07:02:10;9.88;;;5.70;;
79646;SDS011;69119;41.718;21.786;2023-07-29T07:04:36;8.55;;;5.05;;
79646;SDS011;69119;41.718;21.786;2023-07-29T07:07:02;9.45;;;4.68;;
79646;SDS011;69119;41.718;21.786;2023-07-29T07:09:28;8.50;;;4.50;;
79646;SDS011;69119;41.718;21.786;2023-07-29T07:11:54;8.07;;;4.72;;
79646;SDS011;69119;41.718;21.786;2023-07-29T07:14:20;8.70;;;5.05;;
79646;SDS011;69119;41.718;21.786;2023-07-29T07:16:46;11.40;;;5.18;;
79646;SDS011;69119;41.718;21.786;2023-07-29T07:19:12;9.90;;;5.65;;
79646;SDS011;69119;41.718;21.786;2023-07-29T07:21:38;9.85;;;5.70;;
79646;SDS011;69119;41.718;21.786;2023-07-29T07:24:04;9.85;;;4.80;;
79646;SDS011;69119;41.718;21.786;2023-07-29T07:26:30;12.68;;;4.65;;
79646;SDS011;69119;41.718;21.786;2023-07-29T07:28:56;7.63;;;4.88;;
79646;SDS011;69119;41.718;21.786;2023-07-29T07:31:22;7.55;;;4.50;;
79646;SDS011;69119;41.718;21.786;2023-07-29T07:33:48;8.75;;;5.80;;
79646;SDS011;69119;41.718;21.786;2023-07-29T07:36:14;15.27;;;6.03;;
79646;SDS011;69119;41.718;21.786;2023-07-29T07:38:40;9.57;;;5.97;;
79646;SDS011;69119;41.718;21.786;2023-07-29T07:41:07;9.13;;;5.53;;
79646;SDS011;69119;41.718;21.786;2023-07-29T07:43:33;8.55;;;4.72;;
79646;SDS011;69119;41.718;21.786;2023-07-29T07:46:02;9.00;;;5.40;;
79646;SDS011;69119;41.718;21.786;2023-07-29T07:48:28;9.30;;;4.80;;
79646;SDS011;69119;41.718;21.786;2023-07-29T07:50:54;10.00;;;5.32;;
79646;SDS011;69119;41.718;21.786;2023-07-29T07:53:20;14.23;;;5.10;;
79646;SDS011;69119;41.718;21.786;2023-07-29T07:55:47;7.97;;;5.05;;
79646;SDS011;69119;41.718;21.786;2023-07-29T07:58:13;10.52;;;5.05;;
79646;SDS011;69119;41.718;21.786;2023-07-29T08:00:39;7.25;;;4.63;;
79646;SDS011;69119;41.718;21.786;2023-07-29T08:03:05;9.52;;;4.72;;
79646;SDS011;69119;41.718;21.786;2023-07-29T08:05:31;7.68;;;5.75;;
79646;SDS011;69119;41.718;21.786;2023-07-29T08:07:57;8.80;;;5.20;;
79646;SDS011;69119;41.718;21.786;2023-07-29T08:10:24;8.60;;;5.30;;
79646;SDS011;69119;41.718;21.786;2023-07-29T08:12:50;8.95;;;4.75;;
79646;SDS011;69119;41.718;21.786;2023-07-29T08:15:16;8.52;;;5.00;;
79646;SDS011;69119;41.718;21.786;2023-07-29T08:17:42;10.20;;;5.57;;
79646;SDS011;69119;41.718;21.786;2023-07-29T08:20:08;8.05;;;5.05;;
79646;SDS011;69119;41.718;21.786;2023-07-29T08:22:34;8.27;;;4.90;;
79646;SDS011;69119;41.718;21.786;2023-07-29T08:25:00;8.52;;;5.47;;
79646;SDS011;69119;41.718;21.786;2023-07-29T08:27:26;8.00;;;4.90;;
79646;SDS011;69119;41.718;21.786;2023-07-29T08:29:53;12.52;;;5.63;;
79646;SDS011;69119;41.718;21.786;2023-07-29T08:32:19;9.20;;;5.15;;
79646;SDS011;69119;41.718;21.786;2023-07-29T08:34:45;7.68;;;4.90;;
79646;SDS011;69119;41.718;21.786;2023-07-29T08:37:12;10.95;;;4.43;;
79646;SDS011;69119;41.718;21.786;2023-07-29T08:39:38;8.75;;;4.82;;
79646;SDS011;69119;41.718;21.786;2023-07-29T08:42:04;8.60;;;4.25;;
79646;SDS011;69119;41.718;21.786;2023-07-29T08:44:36;8.88;;;5.28;;
79646;SDS011;69119;41.718;21.786;2023-07-29T08:47:05;10.48;;;3.72;;
79646;SDS011;69119;41.718;21.786;2023-07-29T08:49:32;8.10;;;4.68;;
79646;SDS011;69119;41.718;21.786;2023-07-29T08:51:58;9.20;;;5.00;;
79646;SDS011;69119;41.718;21.786;2023-07-29T08:54:25;8.80;;;4.63;;
79646;SDS011;69119;41.718;21.786;2023-07-29T08:56:51;7.53;;;4.25;;
79646;SDS011;69119;41.718;21.786;2023-07-29T08:59:17;9.32;;;4.40;;
79646;SDS011;69119;41.718;21.786;2023-07-29T09:01:43;8.23;;;4.00;;
79646;SDS011;69119;41.718;21.786;2023-07-29T09:04:09;7.88;;;4.85;;
79646;SDS011;69119;41.718;21.786;2023-07-29T09:06:36;7.57;;;4.25;;
79646;SDS011;69119;41.718;21.786;2023-07-29T09:09:03;7.43;;;3.95;;
79646;SDS011;69119;41.718;21.786;2023-07-29T09:11:30;6.35;;;3.40;;
79646;SDS011;69119;41.718;21.786;2023-07-29T09:13:56;8.55;;;4.35;;
79646;SDS011;69119;41.718;21.786;2023-07-29T09:16:23;7.38;;;4.10;;
79646;SDS011;69119;41.718;21.786;2023-07-29T09:18:49;7.65;;;4.70;;
79646;SDS011;69119;41.718;21.786;2023-07-29T09:21:16;8.27;;;4.47;;
79646;SDS011;69119;41.718;21.786;2023-07-29T09:23:43;6.50;;;3.80;;
79646;SDS011;69119;41.718;21.786;2023-07-29T09:26:10;8.00;;;4.65;;
79646;SDS011;69119;41.718;21.786;2023-07-29T09:28:37;7.93;;;4.45;;
79646;SDS011;69119;41.718;21.786;2023-07-29T09:31:03;6.63;;;3.80;;
79646;SDS011;69119;41.718;21.786;2023-07-29T09:33:30;8.50;;;4.55;;
79646;SDS011;69119;41.718;21.786;2023-07-29T09:36:00;7.47;;;4.53;;
79646;SDS011;69119;41.718;21.786;2023-07-29T09:38:27;8.50;;;4.13;;
79646;SDS011;69119;41.718;21.786;2023-07-29T09:40:56;6.32;;;3.72;;
79646;SDS011;69119;41.718;21.786;2023-07-29T09:43:29;8.13;;;4.00;;
79646;SDS011;69119;41.718;21.786;2023-07-29T09:45:58;7.03;;;3.75;;
79646;SDS011;69119;41.718;21.786;2023-07-29T09:48:25;6.68;;;3.90;;
79646;SDS011;69119;41.718;21.786;2023-07-29T09:50:51;7.05;;;4.10;;
79646;SDS011;69119;41.718;21.786;2023-07-29T09:53:17;6.80;;;3.92;;
79646;SDS011;69119;41.718;21.786;2023-07-29T09:55:47;10.07;;;4.32;;
79646;SDS011;69119;41.718;21.786;2023-07-29T09:58:13;10.10;;;4.85;;
79646;SDS011;69119;41.718;21.786;2023-07-29T10:00:39;7.18;;;3.97;;
79646;SDS011;69119;41.718;21.786;2023-07-29T10:03:06;7.95;;;4.53;;
79646;SDS011;69119;41.718;21.786;2023-07-29T10:05:32;7.20;;;4.35;;
79646;SDS011;69119;41.718;21.786;2023-07-29T10:08:03;6.57;;;3.88;;
79646;SDS011;69119;41.718;21.786;2023-07-29T10:10:30;6.22;;;3.30;;
79646;SDS011;69119;41.718;21.786;2023-07-29T10:12:56;7.30;;;4.15;;
79646;SDS011;69119;41.718;21.786;2023-07-29T10:15:22;8.23;;;3.72;;
79646;SDS011;69119;41.718;21.786;2023-07-29T10:17:49;10.07;;;4.38;;
79646;SDS011;69119;41.718;21.786;2023-07-29T10:20:16;6.43;;;3.88;;
79646;SDS011;69119;41.718;21.786;2023-07-29T10:22:43;10.18;;;4.38;;
79646;SDS011;69119;41.718;21.786;2023-07-29T10:27:55;7.13;;;3.72;;
79646;SDS011;69119;41.718;21.786;2023-07-29T10:30:22;5.85;;;3.80;;
79646;SDS011;69119;41.718;21.786;2023-07-29T10:32:50;7.80;;;4.50;;
79646;SDS011;69119;41.718;21.786;2023-07-29T10:35:17;7.78;;;3.95;;
79646;SDS011;69119;41.718;21.786;2023-07-29T10:37:43;6.88;;;3.95;;
79646;SDS011;69119;41.718;21.786;2023-07-29T10:40:10;8.88;;;5.05;;
79646;SDS011;69119;41.718;21.786;2023-07-29T10:42:37;7.75;;;4.40;;
79646;SDS011;69119;41.718;21.786;2023-07-29T10:45:19;8.30;;;4.32;;
79646;SDS011;69119;41.718;21.786;2023-07-29T10:47:46;5.88;;;3.58;;
79646;SDS011;69119;41.718;21.786;2023-07-29T10:50:20;8.48;;;3.60;;
79646;SDS011;69119;41.718;21.786;2023-07-29T10:52:50;7.20;;;3.45;;
79646;SDS011;69119;41.718;21.786;2023-07-29T10:55:32;6.70;;;2.65;;
79646;SDS011;69119;41.718;21.786;2023-07-29T10:58:05;8.50;;;3.75;;
79646;SDS011;69119;41.718;21.786;2023-07-29T11:00:31;7.07;;;3.60;;
79646;SDS011;69119;41.718;21.786;2023-07-29T11:03:02;6.13;;;3.30;;
79646;SDS011;69119;41.718;21.786;2023-07-29T11:05:48;6.72;;;3.42;;
79646;SDS011;69119;41.718;21.786;2023-07-29T11:10:44;6.35;;;3.25;;
79646;SDS011;69119;41.718;21.786;2023-07-29T11:13:22;6.88;;;3.42;;
79646;SDS011;69119;41.718;21.786;2023-07-29T11:15:48;5.70;;;3.50;;
79646;SDS011;69119;41.718;21.786;2023-07-29T11:18:16;6.75;;;3.55;;
79646;SDS011;69119;41.718;21.786;2023-07-29T11:20:42;7.55;;;3.97;;
79646;SDS011;69119;41.718;21.786;2023-07-29T11:23:10;7.25;;;3.70;;
79646;SDS011;69119;41.718;21.786;2023-07-29T11:25:36;7.07;;;3.85;;
79646;SDS011;69119;41.718;21.786;2023-07-29T11:28:03;6.43;;;3.78;;
79646;SDS011;69119;41.718;21.786;2023-07-29T11:30:29;6.47;;;3.67;;
79646;SDS011;69119;41.718;21.786;2023-07-29T11:32:56;6.80;;;3.53;;
79646;SDS011;69119;41.718;21.786;2023-07-29T11:35:23;6.90;;;2.90;;
79646;SDS011;69119;41.718;21.786;2023-07-29T11:37:50;6.15;;;3.15;;
79646;SDS011;69119;41.718;21.786;2023-07-29T11:40:17;5.55;;;3.08;;
79646;SDS011;69119;41.718;21.786;2023-07-29T11:42:43;5.50;;;3.20;;
79646;SDS011;69119;41.718;21.786;2023-07-29T11:45:10;6.18;;;3.13;;
79646;SDS011;69119;41.718;21.786;2023-07-29T11:47:36;5.80;;;2.90;;
79646;SDS011;69119;41.718;21.786;2023-07-29T11:50:03;5.50;;;2.20;;
79646;SDS011;69119;41.718;21.786;2023-07-29T11:52:31;5.68;;;1.95;;
79646;SDS011;69119;41.718;21.786;2023-07-29T11:54:57;7.10;;;3.63;;
79646;SDS011;69119;41.718;21.786;2023-07-29T11:57:24;6.43;;;3.50;;
79646;SDS011;69119;41.718;21.786;2023-07-29T11:59:50;6.95;;;3.22;;
79646;SDS011;69119;41.718;21.786;2023-07-29T12:02:16;6.35;;;3.53;;
79646;SDS011;69119;41.718;21.786;2023-07-29T12:04:43;6.03;;;3.47;;
79646;SDS011;69119;41.718;21.786;2023-07-29T12:07:10;6.30;;;3.70;;
79646;SDS011;69119;41.718;21.786;2023-07-29T12:09:36;5.72;;;3.10;;
79646;SDS011;69119;41.718;21.786;2023-07-29T12:12:03;5.38;;;2.85;;
79646;SDS011;69119;41.718;21.786;2023-07-29T12:14:29;6.63;;;3.17;;
79646;SDS011;69119;41.718;21.786;2023-07-29T12:16:55;8.65;;;3.08;;
79646;SDS011;69119;41.718;21.786;2023-07-29T12:19:22;6.85;;;3.25;;
79646;SDS011;69119;41.718;21.786;2023-07-29T12:21:48;6.85;;;2.88;;
79646;SDS011;69119;41.718;21.786;2023-07-29T12:24:14;6.45;;;3.63;;
79646;SDS011;69119;41.718;21.786;2023-07-29T12:26:41;6.05;;;2.72;;
79646;SDS011;69119;41.718;21.786;2023-07-29T12:29:14;6.68;;;2.33;;
79646;SDS011;69119;41.718;21.786;2023-07-29T12:31:40;6.90;;;3.40;;
79646;SDS011;69119;41.718;21.786;2023-07-29T12:34:06;5.82;;;3.00;;
79646;SDS011;69119;41.718;21.786;2023-07-29T12:36:48;6.95;;;3.03;;
79646;SDS011;69119;41.718;21.786;2023-07-29T12:39:25;5.70;;;2.90;;
79646;SDS011;69119;41.718;21.786;2023-07-29T12:41:52;6.60;;;3.08;;
79646;SDS011;69119;41.718;21.786;2023-07-29T12:44:19;5.18;;;2.08;;
79646;SDS011;69119;41.718;21.786;2023-07-29T12:46:45;6.47;;;3.45;;
79646;SDS011;69119;41.718;21.786;2023-07-29T12:49:11;7.03;;;3.28;;
79646;SDS011;69119;41.718;21.786;2023-07-29T12:51:38;6.55;;;3.33;;
79646;SDS011;69119;41.718;21.786;2023-07-29T12:54:04;6.28;;;3.33;;
79646;SDS011;69119;41.718;21.786;2023-07-29T12:56:31;7.13;;;3.38;;
79646;SDS011;69119;41.718;21.786;2023-07-29T12:58:58;5.65;;;2.70;;
79646;SDS011;69119;41.718;21.786;2023-07-29T13:01:24;5.70;;;2.20;;
79646;SDS011;69119;41.718;21.786;2023-07-29T13:03:50;6.13;;;2.22;;
79646;SDS011;69119;41.718;21.786;2023-07-29T13:06:16;6.35;;;3.10;;
79646;SDS011;69119;41.718;21.786;2023-07-29T13:08:42;7.93;;;4.10;;
79646;SDS011;69119;41.718;21.786;2023-07-29T13:11:09;5.80;;;3.00;;
79646;SDS011;69119;41.718;21.786;2023-07-29T13:13:35;7.47;;;3.42;;
79646;SDS011;69119;41.718;21.786;2023-07-29T13:16:01;5.70;;;2.90;;
79646;SDS011;69119;41.718;21.786;2023-07-29T13:18:27;10.20;;;4.13;;
79646;SDS011;69119;41.718;21.786;2023-07-29T13:20:53;6.25;;;2.72;;
79646;SDS011;69119;41.718;21.786;2023-07-29T13:23:19;7.25;;;2.95;;
79646;SDS011;69119;41.718;21.786;2023-07-29T13:25:46;6.65;;;2.92;;
79646;SDS011;69119;41.718;21.786;2023-07-29T13:28:12;11.45;;;3.67;;
79646;SDS011;69119;41.718;21.786;2023-07-29T13:30:40;6.55;;;3.47;;
79646;SDS011;69119;41.718;21.786;2023-07-29T13:33:07;5.80;;;3.05;;
79646;SDS011;69119;41.718;21.786;2023-07-29T13:35:33;8.88;;;3.17;;
79646;SDS011;69119;41.718;21.786;2023-07-29T13:38:00;6.30;;;3.15;;
79646;SDS011;69119;41.718;21.786;2023-07-29T13:40:26;7.00;;;2.70;;
79646;SDS011;69119;41.718;21.786;2023-07-29T13:42:53;6.78;;;3.38;;
79646;SDS011;69119;41.718;21.786;2023-07-29T13:45:19;5.95;;;3.00;;
79646;SDS011;69119;41.718;21.786;2023-07-29T13:47:45;5.68;;;2.97;;
79646;SDS011;69119;41.718;21.786;2023-07-29T13:50:11;6.68;;;3.20;;
79646;SDS011;69119;41.718;21.786;2023-07-29T13:52:38;6.38;;;3.35;;
79646;SDS011;69119;41.718;21.786;2023-07-29T13:55:04;6.63;;;3.00;;
79646;SDS011;69119;41.718;21.786;2023-07-29T13:57:31;5.72;;;3.03;;
79646;SDS011;69119;41.718;21.786;2023-07-29T13:59:57;7.35;;;3.75;;
79646;SDS011;69119;41.718;21.786;2023-07-29T14:02:23;6.30;;;3.53;;
79646;SDS011;69119;41.718;21.786;2023-07-29T14:04:51;6.00;;;3.20;;
79646;SDS011;69119;41.718;21.786;2023-07-29T14:07:17;6.70;;;2.90;;
79646;SDS011;69119;41.718;21.786;2023-07-29T14:09:43;6.20;;;3.65;;
79646;SDS011;69119;41.718;21.786;2023-07-29T14:12:09;6.10;;;3.40;;
79646;SDS011;69119;41.718;21.786;2023-07-29T14:14:40;6.63;;;2.33;;
79646;SDS011;69119;41.718;21.786;2023-07-29T14:17:06;6.22;;;3.50;;
79646;SDS011;69119;41.718;21.786;2023-07-29T14:19:34;5.60;;;2.92;;
79646;SDS011;69119;41.718;21.786;2023-07-29T14:22:00;6.07;;;3.60;;
79646;SDS011;69119;41.718;21.786;2023-07-29T14:24:26;6.10;;;2.30;;
79646;SDS011;69119;41.718;21.786;2023-07-29T14:26:52;5.53;;;2.40;;
79646;SDS011;69119;41.718;21.786;2023-07-29T14:29:18;6.60;;;3.40;;
79646;SDS011;69119;41.718;21.786;2023-07-29T14:31:44;6.93;;;3.92;;
79646;SDS011;69119;41.718;21.786;2023-07-29T14:34:10;6.28;;;3.17;;
79646;SDS011;69119;41.718;21.786;2023-07-29T14:36:36;6.78;;;3.35;;
79646;SDS011;69119;41.718;21.786;2023-07-29T14:39:02;7.78;;;3.60;;
79646;SDS011;69119;41.718;21.786;2023-07-29T14:41:29;6.65;;;3.33;;
79646;SDS011;69119;41.718;21.786;2023-07-29T14:43:55;8.30;;;3.65;;
79646;SDS011;69119;41.718;21.786;2023-07-29T14:46:21;6.78;;;2.78;;
79646;SDS011;69119;41.718;21.786;2023-07-29T14:48:48;6.40;;;3.25;;
79646;SDS011;69119;41.718;21.786;2023-07-29T14:51:14;6.60;;;3.58;;
79646;SDS011;69119;41.718;21.786;2023-07-29T14:53:40;6.60;;;2.72;;
79646;SDS011;69119;41.718;21.786;2023-07-29T14:56:06;6.45;;;3.85;;
79646;SDS011;69119;41.718;21.786;2023-07-29T14:58:32;7.90;;;2.50;;